Arequipa, Peru
Current Conditions -  °F | °C
As of 4:00 PM on Monday 24 Nov 2014 (Local Time) from SPQU Reporting Station
Clear Clear  
Wind Chill: 19°   Ceiling: Unl
Heat Index: 19°   Visibility: 6mi
Dew Point: -4°   Wind: 13mph
Humidity: 21%   Direction: 260°W
Pressure: 30.24"   Gusts: NA
Location:  16.39°S, 71.53°W
Report Text: SPQU 242100Z 26011KT 220V300 CAVOK 19/M04 Q1024 NOSIGRMK PP000
Loading
Personal Weather Stations






























Interactive Weather Map New forecast layout! Learn more

10-Day Weather Forecast

Advertisements
Track Severe Weather on mobile